sensor_id;sensor_type;location;lat;lon;timestamp;P1;durP1;ratioP1;P2;durP2;ratioP2
15183;SDS011;7693;49.266;7.104;2022-11-21T06:45:36;12.07;;;3.30;;
15183;SDS011;7693;49.266;7.104;2022-11-21T06:48:02;6.57;;;3.27;;
15183;SDS011;7693;49.266;7.104;2022-11-21T06:50:29;13.30;;;4.30;;
15183;SDS011;7693;49.266;7.104;2022-11-21T06:52:57;10.63;;;3.33;;
15183;SDS011;7693;49.266;7.104;2022-11-21T06:55:24;5.30;;;3.03;;
15183;SDS011;7693;49.266;7.104;2022-11-21T06:57:51;7.13;;;3.03;;
15183;SDS011;7693;49.266;7.104;2022-11-21T07:00:17;8.90;;;3.70;;
15183;SDS011;7693;49.266;7.104;2022-11-21T07:02:45;6.97;;;3.20;;
15183;SDS011;7693;49.266;7.104;2022-11-21T07:05:10;3.87;;;2.87;;
15183;SDS011;7693;49.266;7.104;2022-11-21T07:07:36;5.80;;;2.87;;
15183;SDS011;7693;49.266;7.104;2022-11-21T07:10:01;5.03;;;3.17;;
15183;SDS011;7693;49.266;7.104;2022-11-21T07:12:27;5.10;;;3.17;;
15183;SDS011;7693;49.266;7.104;2022-11-21T07:15:12;8.23;;;3.30;;
15183;SDS011;7693;49.266;7.104;2022-11-21T07:17:38;8.47;;;4.03;;
15183;SDS011;7693;49.266;7.104;2022-11-21T07:20:03;9.20;;;3.93;;
15183;SDS011;7693;49.266;7.104;2022-11-21T07:22:29;8.20;;;3.43;;
15183;SDS011;7693;49.266;7.104;2022-11-21T07:24:55;8.27;;;4.03;;
15183;SDS011;7693;49.266;7.104;2022-11-21T07:27:20;10.17;;;4.07;;
15183;SDS011;7693;49.266;7.104;2022-11-21T07:29:46;7.23;;;3.40;;
15183;SDS011;7693;49.266;7.104;2022-11-21T07:32:12;7.77;;;3.43;;
15183;SDS011;7693;49.266;7.104;2022-11-21T07:34:38;8.60;;;4.20;;
15183;SDS011;7693;49.266;7.104;2022-11-21T07:37:04;13.27;;;4.33;;
15183;SDS011;7693;49.266;7.104;2022-11-21T07:39:30;9.60;;;3.20;;
15183;SDS011;7693;49.266;7.104;2022-11-21T07:41:55;8.83;;;3.40;;
15183;SDS011;7693;49.266;7.104;2022-11-21T07:44:21;5.20;;;3.27;;
15183;SDS011;7693;49.266;7.104;2022-11-21T07:46:46;8.90;;;3.20;;
15183;SDS011;7693;49.266;7.104;2022-11-21T07:49:12;8.43;;;3.50;;
15183;SDS011;7693;49.266;7.104;2022-11-21T07:51:38;7.77;;;3.30;;
15183;SDS011;7693;49.266;7.104;2022-11-21T07:54:03;10.70;;;3.30;;
15183;SDS011;7693;49.266;7.104;2022-11-21T07:56:29;7.27;;;3.27;;
15183;SDS011;7693;49.266;7.104;2022-11-21T07:58:54;7.63;;;3.17;;
15183;SDS011;7693;49.266;7.104;2022-11-21T08:01:20;7.50;;;3.10;;
15183;SDS011;7693;49.266;7.104;2022-11-21T08:03:45;6.47;;;3.40;;
15183;SDS011;7693;49.266;7.104;2022-11-21T08:06:11;7.37;;;3.30;;
15183;SDS011;7693;49.266;7.104;2022-11-21T08:08:37;7.30;;;3.60;;
15183;SDS011;7693;49.266;7.104;2022-11-21T08:11:04;9.70;;;3.43;;
15183;SDS011;7693;49.266;7.104;2022-11-21T08:13:30;6.60;;;3.60;;
15183;SDS011;7693;49.266;7.104;2022-11-21T08:15:56;8.57;;;3.53;;
15183;SDS011;7693;49.266;7.104;2022-11-21T08:18:22;7.97;;;3.60;;
15183;SDS011;7693;49.266;7.104;2022-11-21T08:20:48;8.43;;;3.67;;
15183;SDS011;7693;49.266;7.104;2022-11-21T08:23:13;9.30;;;3.80;;
15183;SDS011;7693;49.266;7.104;2022-11-21T08:25:40;10.13;;;3.50;;
15183;SDS011;7693;49.266;7.104;2022-11-21T08:28:06;7.73;;;3.30;;
15183;SDS011;7693;49.266;7.104;2022-11-21T08:30:34;9.80;;;3.63;;
15183;SDS011;7693;49.266;7.104;2022-11-21T08:33:00;12.10;;;3.83;;
15183;SDS011;7693;49.266;7.104;2022-11-21T08:35:26;6.53;;;3.80;;
15183;SDS011;7693;49.266;7.104;2022-11-21T08:37:59;8.47;;;3.60;;
15183;SDS011;7693;49.266;7.104;2022-11-21T08:40:26;12.57;;;3.97;;
15183;SDS011;7693;49.266;7.104;2022-11-21T08:43:00;9.83;;;4.60;;
15183;SDS011;7693;49.266;7.104;2022-11-21T08:45:31;8.20;;;3.80;;
15183;SDS011;7693;49.266;7.104;2022-11-21T08:47:58;11.17;;;3.83;;
15183;SDS011;7693;49.266;7.104;2022-11-21T08:50:24;6.97;;;4.43;;
15183;SDS011;7693;49.266;7.104;2022-11-21T08:52:50;29.33;;;17.67;;
15183;SDS011;7693;49.266;7.104;2022-11-21T08:55:16;7.47;;;4.20;;
15183;SDS011;7693;49.266;7.104;2022-11-21T08:57:42;12.57;;;5.03;;
15183;SDS011;7693;49.266;7.104;2022-11-21T09:00:08;12.43;;;4.50;;
15183;SDS011;7693;49.266;7.104;2022-11-21T09:02:38;10.93;;;4.70;;
15183;SDS011;7693;49.266;7.104;2022-11-21T09:05:04;11.53;;;5.17;;
15183;SDS011;7693;49.266;7.104;2022-11-21T09:07:30;11.73;;;4.53;;
15183;SDS011;7693;49.266;7.104;2022-11-21T09:09:55;12.90;;;4.47;;
15183;SDS011;7693;49.266;7.104;2022-11-21T09:12:21;13.37;;;4.73;;
15183;SDS011;7693;49.266;7.104;2022-11-21T09:14:47;8.80;;;3.90;;
15183;SDS011;7693;49.266;7.104;2022-11-21T09:17:31;9.37;;;4.13;;
15183;SDS011;7693;49.266;7.104;2022-11-21T09:20:15;12.83;;;4.60;;
15183;SDS011;7693;49.266;7.104;2022-11-21T09:22:41;10.87;;;4.50;;
15183;SDS011;7693;49.266;7.104;2022-11-21T09:25:06;9.13;;;4.60;;
15183;SDS011;7693;49.266;7.104;2022-11-21T09:27:32;8.13;;;4.10;;
15183;SDS011;7693;49.266;7.104;2022-11-21T09:29:58;10.60;;;4.10;;
15183;SDS011;7693;49.266;7.104;2022-11-21T09:32:23;10.03;;;4.17;;
15183;SDS011;7693;49.266;7.104;2022-11-21T09:34:49;12.30;;;5.03;;
15183;SDS011;7693;49.266;7.104;2022-11-21T09:37:14;15.37;;;4.53;;
15183;SDS011;7693;49.266;7.104;2022-11-21T09:39:40;8.93;;;4.23;;
15183;SDS011;7693;49.266;7.104;2022-11-21T09:50:35;11.13;;;4.87;;
15183;SDS011;7693;49.266;7.104;2022-11-21T09:55:04;10.80;;;4.27;;
15183;SDS011;7693;49.266;7.104;2022-11-21T09:57:40;15.10;;;4.73;;
15183;SDS011;7693;49.266;7.104;2022-11-21T10:00:12;10.73;;;4.30;;
15183;SDS011;7693;49.266;7.104;2022-11-21T10:02:51;10.77;;;5.17;;
15183;SDS011;7693;49.266;7.104;2022-11-21T10:05:28;14.17;;;4.80;;
15183;SDS011;7693;49.266;7.104;2022-11-21T10:08:04;11.90;;;4.83;;
15183;SDS011;7693;49.266;7.104;2022-11-21T10:10:49;12.27;;;4.10;;
15183;SDS011;7693;49.266;7.104;2022-11-21T10:19:09;11.90;;;4.23;;
15183;SDS011;7693;49.266;7.104;2022-11-21T14:36:25;8.53;;;4.00;;
15183;SDS011;7693;49.266;7.104;2022-11-21T14:38:58;15.30;;;6.40;;
15183;SDS011;7693;49.266;7.104;2022-11-21T14:41:27;9.37;;;4.40;;
15183;SDS011;7693;49.266;7.104;2022-11-21T14:46:24;11.97;;;4.90;;
15183;SDS011;7693;49.266;7.104;2022-11-21T14:48:51;6.33;;;3.87;;
15183;SDS011;7693;49.266;7.104;2022-11-21T14:51:18;11.03;;;3.60;;
15183;SDS011;7693;49.266;7.104;2022-11-21T14:53:46;7.63;;;4.47;;
15183;SDS011;7693;49.266;7.104;2022-11-21T14:56:20;14.90;;;4.90;;
15183;SDS011;7693;49.266;7.104;2022-11-21T14:58:49;14.70;;;4.23;;
15183;SDS011;7693;49.266;7.104;2022-11-21T15:01:23;26.07;;;16.83;;
15183;SDS011;7693;49.266;7.104;2022-11-21T15:03:55;16.80;;;13.73;;
15183;SDS011;7693;49.266;7.104;2022-11-21T15:06:29;18.80;;;10.60;;
15183;SDS011;7693;49.266;7.104;2022-11-21T15:08:57;14.43;;;9.80;;
15183;SDS011;7693;49.266;7.104;2022-11-21T15:11:41;15.50;;;6.27;;
15183;SDS011;7693;49.266;7.104;2022-11-21T15:14:31;61.07;;;41.33;;
15183;SDS011;7693;49.266;7.104;2022-11-21T15:17:12;24.07;;;13.90;;
15183;SDS011;7693;49.266;7.104;2022-11-21T15:19:41;22.00;;;10.33;;
15183;SDS011;7693;49.266;7.104;2022-11-21T15:22:18;7.87;;;4.60;;
15183;SDS011;7693;49.266;7.104;2022-11-21T15:27:40;10.87;;;4.43;;
15183;SDS011;7693;49.266;7.104;2022-11-21T15:35:39;16.87;;;6.73;;
15183;SDS011;7693;49.266;7.104;2022-11-21T15:38:39;14.47;;;5.60;;
15183;SDS011;7693;49.266;7.104;2022-11-21T15:44:13;8.53;;;6.07;;
15183;SDS011;7693;49.266;7.104;2022-11-21T15:46:20;162.97;;;71.43;;
15183;SDS011;7693;49.266;7.104;2022-11-21T15:48:52;293.73;;;141.60;;
15183;SDS011;7693;49.266;7.104;2022-11-21T15:51:35;95.53;;;54.97;;
15183;SDS011;7693;49.266;7.104;2022-11-21T15:54:02;41.47;;;30.00;;
15183;SDS011;7693;49.266;7.104;2022-11-21T15:56:29;21.17;;;13.57;;
15183;SDS011;7693;49.266;7.104;2022-11-21T15:58:54;14.03;;;7.93;;
15183;SDS011;7693;49.266;7.104;2022-11-21T16:01:21;9.27;;;5.67;;
15183;SDS011;7693;49.266;7.104;2022-11-21T16:03:48;12.53;;;6.37;;
15183;SDS011;7693;49.266;7.104;2022-11-21T16:06:19;10.17;;;5.67;;
15183;SDS011;7693;49.266;7.104;2022-11-21T16:08:45;23.63;;;14.80;;
15183;SDS011;7693;49.266;7.104;2022-11-21T16:11:19;12.70;;;6.23;;
15183;SDS011;7693;49.266;7.104;2022-11-21T16:13:48;16.10;;;7.60;;
15183;SDS011;7693;49.266;7.104;2022-11-21T16:16:14;9.57;;;4.87;;
15183;SDS011;7693;49.266;7.104;2022-11-21T16:18:40;11.60;;;5.33;;
15183;SDS011;7693;49.266;7.104;2022-11-21T16:21:07;7.83;;;3.50;;
15183;SDS011;7693;49.266;7.104;2022-11-21T16:23:33;9.17;;;4.00;;
15183;SDS011;7693;49.266;7.104;2022-11-21T16:25:59;10.20;;;4.73;;
15183;SDS011;7693;49.266;7.104;2022-11-21T16:28:25;12.27;;;6.00;;
15183;SDS011;7693;49.266;7.104;2022-11-21T16:30:51;16.17;;;6.40;;
15183;SDS011;7693;49.266;7.104;2022-11-21T16:33:16;11.97;;;6.17;;
15183;SDS011;7693;49.266;7.104;2022-11-21T16:35:42;8.33;;;4.00;;
15183;SDS011;7693;49.266;7.104;2022-11-21T16:38:08;8.50;;;5.00;;
15183;SDS011;7693;49.266;7.104;2022-11-21T16:40:35;16.60;;;5.97;;
15183;SDS011;7693;49.266;7.104;2022-11-21T16:43:11;12.73;;;3.93;;
15183;SDS011;7693;49.266;7.104;2022-11-21T16:45:37;33.17;;;19.60;;
15183;SDS011;7693;49.266;7.104;2022-11-21T16:48:06;12.00;;;7.30;;
15183;SDS011;7693;49.266;7.104;2022-11-21T16:50:32;7.33;;;4.87;;
15183;SDS011;7693;49.266;7.104;2022-11-21T16:52:57;17.57;;;5.53;;
15183;SDS011;7693;49.266;7.104;2022-11-21T16:55:23;9.20;;;3.80;;
15183;SDS011;7693;49.266;7.104;2022-11-21T19:59:41;5.53;;;3.10;;
15183;SDS011;7693;49.266;7.104;2022-11-21T20:02:11;4.80;;;3.23;;
15183;SDS011;7693;49.266;7.104;2022-11-21T20:04:43;6.27;;;3.67;;
15183;SDS011;7693;49.266;7.104;2022-11-21T20:07:09;3.93;;;3.10;;
15183;SDS011;7693;49.266;7.104;2022-11-21T20:09:36;6.83;;;3.60;;
15183;SDS011;7693;49.266;7.104;2022-11-21T20:12:02;6.00;;;3.97;;
15183;SDS011;7693;49.266;7.104;2022-11-21T20:14:28;6.57;;;3.73;;
15183;SDS011;7693;49.266;7.104;2022-11-21T20:16:54;6.93;;;3.47;;
15183;SDS011;7693;49.266;7.104;2022-11-21T20:19:21;8.70;;;4.10;;
15183;SDS011;7693;49.266;7.104;2022-11-21T20:21:48;7.83;;;4.53;;
15183;SDS011;7693;49.266;7.104;2022-11-21T20:24:14;11.97;;;10.07;;
15183;SDS011;7693;49.266;7.104;2022-11-21T20:26:40;4.73;;;3.30;;
15183;SDS011;7693;49.266;7.104;2022-11-21T20:29:06;3.47;;;3.07;;
15183;SDS011;7693;49.266;7.104;2022-11-21T20:31:33;5.20;;;4.77;;
15183;SDS011;7693;49.266;7.104;2022-11-21T20:34:02;6.40;;;3.90;;
15183;SDS011;7693;49.266;7.104;2022-11-21T20:36:30;7.10;;;3.63;;
15183;SDS011;7693;49.266;7.104;2022-11-21T20:38:58;10.93;;;7.83;;
15183;SDS011;7693;49.266;7.104;2022-11-21T20:41:29;7.73;;;3.37;;
15183;SDS011;7693;49.266;7.104;2022-11-21T20:44:00;3.43;;;2.90;;
15183;SDS011;7693;49.266;7.104;2022-11-21T20:46:27;3.53;;;2.97;;
15183;SDS011;7693;49.266;7.104;2022-11-21T20:48:53;5.63;;;3.60;;
15183;SDS011;7693;49.266;7.104;2022-11-21T20:51:20;7.33;;;3.17;;
15183;SDS011;7693;49.266;7.104;2022-11-21T20:53:46;3.90;;;3.20;;
15183;SDS011;7693;49.266;7.104;2022-11-21T20:56:12;11.67;;;7.53;;
15183;SDS011;7693;49.266;7.104;2022-11-21T20:58:38;9.93;;;6.20;;
15183;SDS011;7693;49.266;7.104;2022-11-21T21:01:05;5.10;;;3.47;;
15183;SDS011;7693;49.266;7.104;2022-11-21T21:03:33;5.17;;;4.77;;
15183;SDS011;7693;49.266;7.104;2022-11-21T21:06:03;5.53;;;4.30;;
15183;SDS011;7693;49.266;7.104;2022-11-21T21:08:31;4.90;;;4.47;;
15183;SDS011;7693;49.266;7.104;2022-11-21T21:13:33;9.53;;;8.53;;
15183;SDS011;7693;49.266;7.104;2022-11-21T21:16:02;9.10;;;6.87;;
15183;SDS011;7693;49.266;7.104;2022-11-21T21:18:31;4.37;;;3.97;;
15183;SDS011;7693;49.266;7.104;2022-11-21T21:23:33;4.77;;;4.37;;
15183;SDS011;7693;49.266;7.104;2022-11-21T21:26:07;8.13;;;4.00;;
15183;SDS011;7693;49.266;7.104;2022-11-21T21:28:41;4.73;;;4.30;;
15183;SDS011;7693;49.266;7.104;2022-11-21T21:31:08;4.43;;;4.03;;
15183;SDS011;7693;49.266;7.104;2022-11-21T21:33:35;4.63;;;3.33;;
15183;SDS011;7693;49.266;7.104;2022-11-21T21:36:08;3.80;;;3.50;;
15183;SDS011;7693;49.266;7.104;2022-11-21T21:38:35;3.63;;;3.33;;
15183;SDS011;7693;49.266;7.104;2022-11-21T21:41:11;4.40;;;4.00;;
15183;SDS011;7693;49.266;7.104;2022-11-21T21:43:38;6.20;;;3.03;;
15183;SDS011;7693;49.266;7.104;2022-11-21T21:46:09;5.63;;;3.13;;
15183;SDS011;7693;49.266;7.104;2022-11-21T21:48:39;4.30;;;3.90;;
15183;SDS011;7693;49.266;7.104;2022-11-21T21:51:11;3.80;;;3.50;;
15183;SDS011;7693;49.266;7.104;2022-11-21T21:53:42;3.33;;;3.13;;
15183;SDS011;7693;49.266;7.104;2022-11-21T21:56:09;3.00;;;2.80;;
15183;SDS011;7693;49.266;7.104;2022-11-21T21:58:37;3.53;;;3.23;;
15183;SDS011;7693;49.266;7.104;2022-11-21T22:01:27;2.70;;;2.60;;
15183;SDS011;7693;49.266;7.104;2022-11-21T22:03:51;2.80;;;2.60;;
15183;SDS011;7693;49.266;7.104;2022-11-21T22:06:21;2.60;;;2.40;;
15183;SDS011;7693;49.266;7.104;2022-11-21T22:08:49;3.07;;;2.30;;
15183;SDS011;7693;49.266;7.104;2022-11-21T22:11:16;3.60;;;2.60;;
15183;SDS011;7693;49.266;7.104;2022-11-21T22:13:49;3.17;;;2.93;;
15183;SDS011;7693;49.266;7.104;2022-11-21T22:16:16;2.57;;;2.47;;
15183;SDS011;7693;49.266;7.104;2022-11-21T22:18:42;4.63;;;2.50;;
15183;SDS011;7693;49.266;7.104;2022-11-21T22:21:11;3.07;;;2.63;;
15183;SDS011;7693;49.266;7.104;2022-11-21T22:23:41;2.87;;;2.53;;
15183;SDS011;7693;49.266;7.104;2022-11-21T22:26:07;2.50;;;2.30;;
15183;SDS011;7693;49.266;7.104;2022-11-21T22:28:35;2.60;;;2.40;;
15183;SDS011;7693;49.266;7.104;2022-11-21T22:31:01;2.73;;;2.60;;
15183;SDS011;7693;49.266;7.104;2022-11-21T22:33:27;2.77;;;2.27;;
15183;SDS011;7693;49.266;7.104;2022-11-21T22:35:57;3.30;;;2.90;;
15183;SDS011;7693;49.266;7.104;2022-11-21T22:38:24;2.50;;;2.40;;
15183;SDS011;7693;49.266;7.104;2022-11-21T22:40:50;2.53;;;2.40;;
15183;SDS011;7693;49.266;7.104;2022-11-21T22:43:15;2.40;;;2.30;;
15183;SDS011;7693;49.266;7.104;2022-11-21T22:45:41;2.47;;;2.37;;
15183;SDS011;7693;49.266;7.104;2022-11-21T22:48:06;2.80;;;2.33;;
15183;SDS011;7693;49.266;7.104;2022-11-21T22:50:32;2.50;;;2.40;;
15183;SDS011;7693;49.266;7.104;2022-11-21T22:52:58;2.77;;;2.57;;
15183;SDS011;7693;49.266;7.104;2022-11-21T22:55:24;2.47;;;2.37;;
15183;SDS011;7693;49.266;7.104;2022-11-21T22:57:49;2.67;;;2.57;;
15183;SDS011;7693;49.266;7.104;2022-11-21T23:00:15;2.63;;;2.50;;
15183;SDS011;7693;49.266;7.104;2022-11-21T23:02:41;2.70;;;2.50;;
15183;SDS011;7693;49.266;7.104;2022-11-21T23:05:07;2.43;;;2.33;;
15183;SDS011;7693;49.266;7.104;2022-11-21T23:07:33;2.70;;;2.50;;
15183;SDS011;7693;49.266;7.104;2022-11-21T23:09:58;2.53;;;2.43;;
15183;SDS011;7693;49.266;7.104;2022-11-21T23:12:24;2.60;;;2.40;;
15183;SDS011;7693;49.266;7.104;2022-11-21T23:14:50;3.13;;;2.87;;
15183;SDS011;7693;49.266;7.104;2022-11-21T23:17:16;2.60;;;2.40;;
15183;SDS011;7693;49.266;7.104;2022-11-21T23:19:42;2.50;;;2.40;;
15183;SDS011;7693;49.266;7.104;2022-11-21T23:22:08;7.87;;;2.90;;
15183;SDS011;7693;49.266;7.104;2022-11-21T23:24:34;3.77;;;3.13;;
